sensor_id;sensor_type;location;lat;lon;timestamp;P1;durP1;ratioP1;P2;durP2;ratioP2
76593;SDS011;65482;50.240;14.302;2023-06-22T04:25:14;10.02;;;7.20;;
76593;SDS011;65482;50.240;14.302;2023-06-22T04:27:41;9.00;;;7.47;;
76593;SDS011;65482;50.240;14.302;2023-06-22T04:30:16;13.38;;;7.18;;
76593;SDS011;65482;50.240;14.302;2023-06-22T04:32:55;10.50;;;7.43;;
76593;SDS011;65482;50.240;14.302;2023-06-22T04:35:23;11.20;;;8.02;;
76593;SDS011;65482;50.240;14.302;2023-06-22T04:37:57;11.05;;;7.05;;
76593;SDS011;65482;50.240;14.302;2023-06-22T04:40:25;11.10;;;7.82;;
76593;SDS011;65482;50.240;14.302;2023-06-22T04:43:01;15.02;;;8.20;;
76593;SDS011;65482;50.240;14.302;2023-06-22T04:45:33;11.77;;;7.70;;
76593;SDS011;65482;50.240;14.302;2023-06-22T04:48:05;9.15;;;7.38;;
76593;SDS011;65482;50.240;14.302;2023-06-22T04:50:39;13.70;;;8.00;;
76593;SDS011;65482;50.240;14.302;2023-06-22T04:53:08;9.63;;;7.63;;
76593;SDS011;65482;50.240;14.302;2023-06-22T04:59:06;11.60;;;8.07;;
76593;SDS011;65482;50.240;14.302;2023-06-22T05:01:33;17.52;;;8.77;;
76593;SDS011;65482;50.240;14.302;2023-06-22T05:04:00;12.23;;;7.88;;
76593;SDS011;65482;50.240;14.302;2023-06-22T05:06:26;12.68;;;8.98;;
76593;SDS011;65482;50.240;14.302;2023-06-22T05:25:15;10.80;;;7.93;;
76593;SDS011;65482;50.240;14.302;2023-06-22T06:16:30;19.73;;;13.48;;
76593;SDS011;65482;50.240;14.302;2023-06-22T06:19:12;20.23;;;13.15;;
76593;SDS011;65482;50.240;14.302;2023-06-22T06:21:38;20.23;;;12.50;;
76593;SDS011;65482;50.240;14.302;2023-06-22T06:31:28;15.02;;;11.27;;
76593;SDS011;65482;50.240;14.302;2023-06-22T07:51:33;10.43;;;6.18;;
76593;SDS011;65482;50.240;14.302;2023-06-22T07:59:55;7.57;;;6.22;;
76593;SDS011;65482;50.240;14.302;2023-06-22T08:02:46;9.90;;;6.28;;
76593;SDS011;65482;50.240;14.302;2023-06-22T08:05:19;9.60;;;6.32;;
76593;SDS011;65482;50.240;14.302;2023-06-22T08:22:32;8.10;;;5.50;;
76593;SDS011;65482;50.240;14.302;2023-06-22T08:34:17;7.15;;;6.07;;
76593;SDS011;65482;50.240;14.302;2023-06-22T08:36:47;10.70;;;6.43;;
76593;SDS011;65482;50.240;14.302;2023-06-22T08:39:18;11.45;;;6.30;;
76593;SDS011;65482;50.240;14.302;2023-06-22T08:41:45;11.50;;;6.20;;
76593;SDS011;65482;50.240;14.302;2023-06-22T08:52:29;8.67;;;6.50;;
76593;SDS011;65482;50.240;14.302;2023-06-22T08:58:56;12.00;;;6.78;;
76593;SDS011;65482;50.240;14.302;2023-06-22T09:01:24;8.32;;;6.10;;
76593;SDS011;65482;50.240;14.302;2023-06-22T09:03:57;7.25;;;6.03;;
76593;SDS011;65482;50.240;14.302;2023-06-22T09:06:34;14.00;;;6.60;;
76593;SDS011;65482;50.240;14.302;2023-06-22T09:08:59;10.50;;;6.10;;
76593;SDS011;65482;50.240;14.302;2023-06-22T09:11:25;7.53;;;6.72;;
76593;SDS011;65482;50.240;14.302;2023-06-22T09:13:50;8.05;;;6.72;;
76593;SDS011;65482;50.240;14.302;2023-06-22T09:16:17;7.82;;;6.28;;
76593;SDS011;65482;50.240;14.302;2023-06-22T09:18:46;7.10;;;6.18;;
76593;SDS011;65482;50.240;14.302;2023-06-22T09:21:12;9.60;;;6.93;;
76593;SDS011;65482;50.240;14.302;2023-06-22T09:23:38;7.40;;;6.25;;
76593;SDS011;65482;50.240;14.302;2023-06-22T09:26:03;12.35;;;6.45;;
76593;SDS011;65482;50.240;14.302;2023-06-22T09:28:29;8.82;;;6.57;;
76593;SDS011;65482;50.240;14.302;2023-06-22T09:30:55;7.50;;;6.50;;
76593;SDS011;65482;50.240;14.302;2023-06-22T09:33:23;8.85;;;6.25;;
76593;SDS011;65482;50.240;14.302;2023-06-22T09:35:50;7.20;;;6.40;;
76593;SDS011;65482;50.240;14.302;2023-06-22T09:38:16;8.82;;;6.75;;
76593;SDS011;65482;50.240;14.302;2023-06-22T09:40:42;8.45;;;6.68;;
76593;SDS011;65482;50.240;14.302;2023-06-22T09:43:08;8.50;;;6.10;;
76593;SDS011;65482;50.240;14.302;2023-06-22T09:45:33;7.40;;;6.35;;
76593;SDS011;65482;50.240;14.302;2023-06-22T09:47:59;7.22;;;6.13;;
76593;SDS011;65482;50.240;14.302;2023-06-22T09:50:25;7.68;;;5.90;;
76593;SDS011;65482;50.240;14.302;2023-06-22T09:52:51;8.10;;;6.18;;
76593;SDS011;65482;50.240;14.302;2023-06-22T09:55:22;7.03;;;6.32;;
76593;SDS011;65482;50.240;14.302;2023-06-22T09:57:48;7.38;;;6.60;;
76593;SDS011;65482;50.240;14.302;2023-06-22T10:00:14;7.03;;;6.32;;
76593;SDS011;65482;50.240;14.302;2023-06-22T10:18:34;6.60;;;5.95;;
76593;SDS011;65482;50.240;14.302;2023-06-22T10:21:00;7.97;;;6.45;;
76593;SDS011;65482;50.240;14.302;2023-06-22T10:23:27;6.90;;;6.22;;
76593;SDS011;65482;50.240;14.302;2023-06-22T10:25:53;8.50;;;6.70;;
76593;SDS011;65482;50.240;14.302;2023-06-22T10:28:19;8.55;;;6.78;;
76593;SDS011;65482;50.240;14.302;2023-06-22T10:30:44;10.35;;;6.50;;
76593;SDS011;65482;50.240;14.302;2023-06-22T10:33:10;8.43;;;6.25;;
76593;SDS011;65482;50.240;14.302;2023-06-22T10:35:37;7.80;;;6.60;;
76593;SDS011;65482;50.240;14.302;2023-06-22T10:38:03;7.28;;;6.60;;
76593;SDS011;65482;50.240;14.302;2023-06-22T10:40:29;12.23;;;6.70;;
76593;SDS011;65482;50.240;14.302;2023-06-22T10:42:55;7.70;;;6.90;;
76593;SDS011;65482;50.240;14.302;2023-06-22T10:45:20;6.85;;;6.10;;
76593;SDS011;65482;50.240;14.302;2023-06-22T10:47:46;8.80;;;6.97;;
76593;SDS011;65482;50.240;14.302;2023-06-22T10:50:12;9.18;;;7.00;;
76593;SDS011;65482;50.240;14.302;2023-06-22T10:52:37;8.60;;;7.00;;
76593;SDS011;65482;50.240;14.302;2023-06-22T10:55:03;8.68;;;6.47;;
76593;SDS011;65482;50.240;14.302;2023-06-22T10:57:29;7.40;;;6.60;;
76593;SDS011;65482;50.240;14.302;2023-06-22T10:59:55;12.65;;;6.70;;
76593;SDS011;65482;50.240;14.302;2023-06-22T11:02:20;9.32;;;6.90;;
76593;SDS011;65482;50.240;14.302;2023-06-22T11:04:46;9.35;;;6.45;;
76593;SDS011;65482;50.240;14.302;2023-06-22T11:07:12;6.85;;;6.18;;
76593;SDS011;65482;50.240;14.302;2023-06-22T11:09:38;10.82;;;7.03;;
76593;SDS011;65482;50.240;14.302;2023-06-22T11:12:04;7.22;;;6.43;;
76593;SDS011;65482;50.240;14.302;2023-06-22T11:14:31;7.15;;;6.40;;
76593;SDS011;65482;50.240;14.302;2023-06-22T11:16:58;8.02;;;6.63;;
76593;SDS011;65482;50.240;14.302;2023-06-22T11:19:24;12.23;;;6.82;;
76593;SDS011;65482;50.240;14.302;2023-06-22T11:21:50;8.32;;;6.47;;
76593;SDS011;65482;50.240;14.302;2023-06-22T11:24:16;8.10;;;6.75;;
76593;SDS011;65482;50.240;14.302;2023-06-22T11:26:42;12.20;;;7.18;;
76593;SDS011;65482;50.240;14.302;2023-06-22T11:29:08;9.38;;;6.75;;
76593;SDS011;65482;50.240;14.302;2023-06-22T11:31:36;9.10;;;6.88;;
76593;SDS011;65482;50.240;14.302;2023-06-22T11:34:03;11.00;;;7.05;;
76593;SDS011;65482;50.240;14.302;2023-06-22T11:36:29;10.05;;;7.05;;
76593;SDS011;65482;50.240;14.302;2023-06-22T11:38:59;8.90;;;7.07;;
76593;SDS011;65482;50.240;14.302;2023-06-22T11:41:25;9.80;;;6.90;;
76593;SDS011;65482;50.240;14.302;2023-06-22T11:43:55;8.52;;;6.95;;
76593;SDS011;65482;50.240;14.302;2023-06-22T11:46:20;11.85;;;7.10;;
76593;SDS011;65482;50.240;14.302;2023-06-22T11:48:46;8.32;;;6.47;;
76593;SDS011;65482;50.240;14.302;2023-06-22T11:51:11;9.50;;;6.63;;
76593;SDS011;65482;50.240;14.302;2023-06-22T11:53:37;9.95;;;7.60;;
76593;SDS011;65482;50.240;14.302;2023-06-22T11:56:02;10.27;;;6.95;;
76593;SDS011;65482;50.240;14.302;2023-06-22T11:58:28;11.77;;;6.75;;
76593;SDS011;65482;50.240;14.302;2023-06-22T12:00:54;12.82;;;6.95;;
76593;SDS011;65482;50.240;14.302;2023-06-22T12:03:20;8.98;;;7.00;;
76593;SDS011;65482;50.240;14.302;2023-06-22T12:05:49;9.98;;;6.88;;
76593;SDS011;65482;50.240;14.302;2023-06-22T12:08:17;9.57;;;6.75;;
76593;SDS011;65482;50.240;14.302;2023-06-22T12:10:43;10.73;;;6.95;;
76593;SDS011;65482;50.240;14.302;2023-06-22T12:13:12;13.43;;;7.22;;
76593;SDS011;65482;50.240;14.302;2023-06-22T12:15:38;8.27;;;6.78;;
76593;SDS011;65482;50.240;14.302;2023-06-22T12:18:04;9.93;;;6.85;;
76593;SDS011;65482;50.240;14.302;2023-06-22T12:20:30;8.00;;;7.13;;
76593;SDS011;65482;50.240;14.302;2023-06-22T12:22:57;7.32;;;6.63;;
76593;SDS011;65482;50.240;14.302;2023-06-22T12:25:23;11.32;;;6.60;;
76593;SDS011;65482;50.240;14.302;2023-06-22T12:27:49;10.63;;;7.28;;
76593;SDS011;65482;50.240;14.302;2023-06-22T12:30:15;10.98;;;6.30;;
76593;SDS011;65482;50.240;14.302;2023-06-22T12:32:41;9.10;;;6.90;;
76593;SDS011;65482;50.240;14.302;2023-06-22T12:35:07;9.75;;;7.10;;
76593;SDS011;65482;50.240;14.302;2023-06-22T12:37:37;9.02;;;6.85;;
76593;SDS011;65482;50.240;14.302;2023-06-22T12:40:03;9.20;;;6.75;;
76593;SDS011;65482;50.240;14.302;2023-06-22T12:42:29;9.35;;;6.57;;
76593;SDS011;65482;50.240;14.302;2023-06-22T12:44:54;8.00;;;6.93;;
76593;SDS011;65482;50.240;14.302;2023-06-22T12:47:20;10.55;;;6.57;;
76593;SDS011;65482;50.240;14.302;2023-06-22T12:49:45;9.52;;;6.38;;
76593;SDS011;65482;50.240;14.302;2023-06-22T12:52:11;10.90;;;6.82;;
76593;SDS011;65482;50.240;14.302;2023-06-22T12:54:37;9.48;;;6.95;;
76593;SDS011;65482;50.240;14.302;2023-06-22T12:57:02;12.40;;;6.93;;
76593;SDS011;65482;50.240;14.302;2023-06-22T12:59:28;11.05;;;7.10;;
76593;SDS011;65482;50.240;14.302;2023-06-22T13:01:56;11.77;;;7.07;;
76593;SDS011;65482;50.240;14.302;2023-06-22T13:04:21;7.68;;;6.72;;
76593;SDS011;65482;50.240;14.302;2023-06-22T13:06:47;10.23;;;6.97;;
76593;SDS011;65482;50.240;14.302;2023-06-22T13:17:46;9.70;;;6.40;;
76593;SDS011;65482;50.240;14.302;2023-06-22T13:20:15;8.73;;;6.95;;
76593;SDS011;65482;50.240;14.302;2023-06-22T13:22:54;9.70;;;6.82;;
76593;SDS011;65482;50.240;14.302;2023-06-22T13:25:27;8.48;;;6.80;;
76593;SDS011;65482;50.240;14.302;2023-06-22T13:27:52;7.60;;;6.75;;
76593;SDS011;65482;50.240;14.302;2023-06-22T13:30:34;8.80;;;7.32;;
76593;SDS011;65482;50.240;14.302;2023-06-22T13:33:06;10.70;;;7.22;;
76593;SDS011;65482;50.240;14.302;2023-06-22T13:35:35;9.45;;;6.82;;
76593;SDS011;65482;50.240;14.302;2023-06-22T13:38:01;12.07;;;7.55;;
76593;SDS011;65482;50.240;14.302;2023-06-22T13:40:27;8.07;;;7.15;;
76593;SDS011;65482;50.240;14.302;2023-06-22T13:42:53;12.75;;;7.25;;
76593;SDS011;65482;50.240;14.302;2023-06-22T13:45:20;8.90;;;7.28;;
76593;SDS011;65482;50.240;14.302;2023-06-22T13:47:45;10.15;;;7.50;;
76593;SDS011;65482;50.240;14.302;2023-06-22T13:50:11;8.88;;;7.15;;
76593;SDS011;65482;50.240;14.302;2023-06-22T13:52:42;9.20;;;7.50;;
76593;SDS011;65482;50.240;14.302;2023-06-22T13:55:08;9.70;;;7.10;;
76593;SDS011;65482;50.240;14.302;2023-06-22T13:57:35;9.50;;;6.97;;
76593;SDS011;65482;50.240;14.302;2023-06-22T14:00:02;13.50;;;7.45;;
76593;SDS011;65482;50.240;14.302;2023-06-22T14:02:30;7.82;;;6.88;;
76593;SDS011;65482;50.240;14.302;2023-06-22T14:04:56;12.32;;;7.35;;
76593;SDS011;65482;50.240;14.302;2023-06-22T14:07:22;11.00;;;7.13;;
76593;SDS011;65482;50.240;14.302;2023-06-22T14:09:52;8.68;;;6.95;;
76593;SDS011;65482;50.240;14.302;2023-06-22T14:12:17;9.60;;;6.80;;
76593;SDS011;65482;50.240;14.302;2023-06-22T14:14:46;10.10;;;6.88;;
76593;SDS011;65482;50.240;14.302;2023-06-22T14:17:15;9.10;;;6.50;;
76593;SDS011;65482;50.240;14.302;2023-06-22T14:19:43;12.57;;;7.20;;
76593;SDS011;65482;50.240;14.302;2023-06-22T14:22:08;10.63;;;6.50;;
76593;SDS011;65482;50.240;14.302;2023-06-22T14:24:36;9.57;;;6.93;;
76593;SDS011;65482;50.240;14.302;2023-06-22T14:27:04;7.50;;;6.68;;
76593;SDS011;65482;50.240;14.302;2023-06-22T14:29:38;9.05;;;7.50;;
76593;SDS011;65482;50.240;14.302;2023-06-22T14:35:54;8.00;;;6.90;;
76593;SDS011;65482;50.240;14.302;2023-06-22T14:38:58;7.55;;;6.75;;
76593;SDS011;65482;50.240;14.302;2023-06-22T14:41:49;9.10;;;6.47;;
76593;SDS011;65482;50.240;14.302;2023-06-22T15:25:34;8.48;;;6.43;;
76593;SDS011;65482;50.240;14.302;2023-06-22T15:35:31;8.85;;;6.38;;
76593;SDS011;65482;50.240;14.302;2023-06-22T15:38:19;9.90;;;6.50;;
76593;SDS011;65482;50.240;14.302;2023-06-22T15:47:24;9.23;;;6.80;;
76593;SDS011;65482;50.240;14.302;2023-06-22T17:10:08;10.48;;;6.00;;
76593;SDS011;65482;50.240;14.302;2023-06-22T17:12:36;8.82;;;6.50;;
76593;SDS011;65482;50.240;14.302;2023-06-22T17:15:43;12.43;;;6.65;;
76593;SDS011;65482;50.240;14.302;2023-06-22T17:18:45;9.68;;;6.82;;
76593;SDS011;65482;50.240;14.302;2023-06-22T17:24:33;14.32;;;6.43;;
76593;SDS011;65482;50.240;14.302;2023-06-22T17:31:36;8.73;;;6.70;;
76593;SDS011;65482;50.240;14.302;2023-06-22T22:23:11;8.00;;;6.47;;
